Giove Jet — IJNX — position and weather

sailwx.info

Track history (hours):
 
Tides and Currents Weather Stations Pressure Air Temp Water Temp Dewpoint Dewpoint Depression Visibility Wind Speed Wind Dir Waves Ship Positions

Giove Jet

Last reported at 2018-Apr-24 12:20 UTC. Time now 2018-Apr-26 15:34 UTC.
Position N 40°50' E 014°16'.

Length 33 m; draft 1.1 m.

Type: Passenger vessel. MMSI: 247049500.

Date/timePositionNaut miles runAvg speedWind from/ knotsBaromVisibWave heightAir tempDewpointWater temp
2018-Apr-24 12:20N 40°50' E 014°16'2 4.6
2018-Apr-24 12:00N 40°49' E 014°17'1427.7
2018-Apr-24 11:30N 40°46' E 013°59'2 1.6
2018-Apr-24 09:57N 40°46' E 013°55'4 9.0
2018-Apr-24 09:30N 40°46' E 014°01'12 4.4
2018-Apr-24 06:47N 40°50' E 014°16'516.2
2018-Apr-24 06:31N 40°47' E 014°11'1222.3
2018-Apr-24 06:00N 40°45' E 013°56'816.2
2018-Apr-24 05:31N 40°47' E 014°06'810.0
2018-Apr-24 04:43N 40°50' E 014°16'0 0.0
2018-Apr-23 12:24N 40°50' E 014°16'2 4.2
2018-Apr-23 12:00N 40°49' E 014°16'1428.1
2018-Apr-23 11:30N 40°45' E 013°58'2 1.3
2018-Apr-23 09:58N 40°46' E 013°55'4 8.8
2018-Apr-23 09:30N 40°46' E 014°01'12 7.3
2018-Apr-23 07:54N 40°50' E 014°15'0 0.0
2018-Apr-23 07:30N 40°50' E 014°15'0 0.0
2018-Apr-23 06:57N 40°50' E 014°15'510.7
2018-Apr-23 06:30N 40°47' E 014°11'1122.4
2018-Apr-23 06:00N 40°45' E 013°56'917.5
2018-Apr-23 05:30N 40°47' E 014°07'713.9
2018-Apr-23 05:00N 40°50' E 014°15'1 1.4
2018-Apr-23 04:30N 40°51' E 014°16'0 0.0
2018-Apr-22 18:20N 40°51' E 014°16'1 2.4
2018-Apr-22 18:00N 40°50' E 014°15'816.4
2018-Apr-22 17:31N 40°46' E 014°06'714.4
2018-Apr-22 17:00N 40°45' E 013°56'4 8.4
2018-Apr-22 16:31N 40°46' E 014°01'1122.0
2018-Apr-22 15:59N 40°50' E 014°16'2 3.1
2018-Apr-22 15:31N 40°49' E 014°16'1428.0
2018-Apr-22 15:01N 40°45' E 013°58'2 3.0
2018-Apr-22 14:30N 40°45' E 013°56'1 1.3
2018-Apr-22 14:00N 40°45' E 013°56'0 0.0
2018-Apr-22 13:25N 40°45' E 013°56'0 0.0
2018-Apr-22 12:58N 40°45' E 013°56'0 0.0
2018-Apr-22 12:24N 40°45' E 013°56'0 0.0
2018-Apr-22 12:00N 40°45' E 013°56'0 0.0
2018-Apr-22 11:15N 40°45' E 013°56'0 1.2
2018-Apr-22 10:58N 40°45' E 013°57'1124.9
2018-Apr-22 10:30N 40°47' E 014°11'4 7.4
2018-Apr-22 09:55N 40°50' E 014°15'1 1.7
2018-Apr-22 09:29N 40°51' E 014°16'0 0.0
2018-Apr-22 09:00N 40°51' E 014°16'0 0.0
2018-Apr-20 12:37N 40°51' E 014°16'0 0.0
2018-Apr-20 12:29N 40°51' E 014°16'2 4.0
2018-Apr-20 12:01N 40°49' E 014°17'1428.8
2018-Apr-20 11:30N 40°45' E 013°58'2 1.2
2018-Apr-20 10:00N 40°46' E 013°56'511.2
2018-Apr-20 09:30N 40°46' E 014°03'10 7.6
2018-Apr-20 08:11N 40°50' E 014°15'0 0.0
2018-Apr-20 06:51N 40°50' E 014°15'3 9.1
2018-Apr-20 06:30N 40°48' E 014°13'1325.8
2018-Apr-20 06:00N 40°45' E 013°56'816.8
2018-Apr-20 05:31N 40°47' E 014°07'714.0
2018-Apr-20 05:00N 40°50' E 014°15'1 1.5
2018-Apr-20 04:30N 40°51' E 014°16'0 0.0
2018-Apr-19 15:57N 40°51' E 014°16'1 3.1
2018-Apr-19 15:30N 40°49' E 014°17'1428.7
2018-Apr-19 15:00N 40°46' E 013°59'5 4.4
2018-Apr-19 13:49N 40°46' E 013°52'310.7
2018-Apr-19 13:30N 40°45' E 013°56'919.3
2018-Apr-19 13:00N 40°47' E 014°08'612.2
2018-Apr-19 12:30N 40°50' E 014°15'2 3.5
2018-Apr-19 12:01N 40°49' E 014°16'1527.7
2018-Apr-19 11:29N 40°45' E 013°57'3 2.2
2018-Apr-19 09:58N 40°46' E 013°53'613.4
2018-Apr-19 09:30N 40°46' E 014°01'1224.3
2018-Apr-19 09:00N 40°50' E 014°16'1 1.2
2018-Apr-19 08:29N 40°50' E 014°15'0 0.0
2018-Apr-19 07:55N 40°50' E 014°15'0 0.0
2018-Apr-19 07:27N 40°50' E 014°15'0 0.0
2018-Apr-19 06:53N 40°50' E 014°15'410.9
2018-Apr-19 06:31N 40°47' E 014°12'1224.0
2018-Apr-19 06:00N 40°45' E 013°56'917.2
2018-Apr-19 05:30N 40°47' E 014°07'712.5
2018-Apr-19 04:57N 40°50' E 014°15'1 1.7
2018-Apr-19 04:30N 40°51' E 014°16'0 0.0
2018-Apr-18 13:04N 40°51' E 014°16'0 0.0
2018-Apr-18 12:58N 40°51' E 014°16'0 0.0
2018-Apr-18 12:28N 40°51' E 014°16'2 5.3
2018-Apr-18 12:00N 40°48' E 014°15'1427.3
2018-Apr-18 11:30N 40°45' E 013°58'3 1.8
2018-Apr-18 09:53N 40°46' E 013°54'4 9.2
2018-Apr-18 09:30N 40°46' E 013°58'1426.2
2018-Apr-18 08:58N 40°50' E 014°16'1 1.6
2018-Apr-18 08:28N 40°50' E 014°15'0 0.0
2018-Apr-18 07:59N 40°50' E 014°15'0 0.0
2018-Apr-18 07:29N 40°50' E 014°15'0 0.0
2018-Apr-18 06:58N 40°50' E 014°15'510.8
2018-Apr-18 06:30N 40°47' E 014°11'1122.1
2018-Apr-18 06:00N 40°45' E 013°56'917.9
2018-Apr-18 05:30N 40°47' E 014°08'713.4
2018-Apr-18 05:00N 40°50' E 014°15'1 1.5
2018-Apr-18 04:30N 40°51' E 014°16'0 0.0
2018-Apr-17 12:37N 40°51' E 014°16'0 0.0
2018-Apr-17 12:30N 40°51' E 014°16'1 2.9
2018-Apr-17 12:00N 40°49' E 014°16'1427.5
2018-Apr-17 11:30N 40°46' E 013°59'4 2.8
2018-Apr-17 10:01N 40°46' E 013°53'128.5
2018-Apr-17 10:00N 40°46' E 013°54'714.2
2018-Apr-17 09:30N 40°47' E 014°03'1016.5
2018-Apr-17 08:55N 40°50' E 014°15'0 0.0
2018-Apr-17 08:28N 40°50' E 014°15'0 0.0
2018-Apr-17 07:55N 40°50' E 014°15'0 0.0
2018-Apr-17 07:30N 40°50' E 014°15'0 0.0
2018-Apr-17 06:58N 40°50' E 014°15'613.7
2018-Apr-17 06:30N 40°46' E 014°09'917.1
2018-Apr-17 05:57N 40°45' E 013°56'920.0
2018-Apr-17 05:30N 40°47' E 014°08'712.9
2018-Apr-17 05:00N 40°50' E 014°15'1 1.5
2018-Apr-17 04:30N 40°51' E 014°16'0 0.0
2018-Apr-16 12:26N 40°50' E 014°16'3 6.1
2018-Apr-16 12:01N 40°48' E 014°14'1427.0
2018-Apr-16 11:29N 40°45' E 013°57'4 2.4
2018-Apr-16 10:01N 40°46' E 013°52'712.5
2018-Apr-16 09:28N 40°46' E 014°01'1226.7
2018-Apr-16 09:00N 40°50' E 014°17'1 2.3
2018-Apr-16 08:30N 40°50' E 014°15'0 0.0
2018-Apr-16 07:57N 40°50' E 014°15'0 0.0
2018-Apr-16 07:25N 40°50' E 014°15'0 0.0
2018-Apr-16 06:59N 40°50' E 014°15'4 8.3
2018-Apr-16 06:30N 40°47' E 014°12'1223.2
2018-Apr-16 05:59N 40°45' E 013°56'917.7
2018-Apr-16 05:30N 40°47' E 014°07'713.8
2018-Apr-16 05:00N 40°50' E 014°15'1 1.5
2018-Apr-16 04:30N 40°51' E 014°16'0 0.0
2018-Apr-15 17:22N 40°51' E 014°16'0 1.4
2018-Apr-15 17:00N 40°50' E 014°16'1122.2
2018-Apr-15 16:30N 40°46' E 014°02'7 3.8
2018-Apr-15 14:38N 40°46' E 013°53'321.8
2018-Apr-15 14:30N 40°45' E 013°56'612.3
2018-Apr-15 14:00N 40°46' E 014°04'917.7
2018-Apr-15 13:29N 40°50' E 014°15'0 0.0
2018-Apr-15 13:00N 40°50' E 014°15'4 7.1
2018-Apr-15 12:30N 40°47' E 014°13'1324.7
2018-Apr-15 12:00N 40°45' E 013°56'0 0.0
2018-Apr-15 11:30N 40°45' E 013°56'0 0.0
2018-Apr-15 11:00N 40°45' E 013°56'1122.8
2018-Apr-15 10:31N 40°47' E 014°11'5 8.8
2018-Apr-15 09:59N 40°50' E 014°15'1 0.9
2018-Apr-15 09:11N 40°51' E 014°16'0 0.0
2018-Apr-14 12:34N 40°51' E 014°16'0 0.1
2018-Apr-14 12:30N 40°51' E 014°16'  
Track history (hours):
 
Tides and Currents Weather Stations Pressure Air Temp Water Temp Dewpoint Dewpoint Depression Visibility Wind Speed Wind Dir Waves Ship Positions

Giove Jet

Last reported at 2018-Apr-24 12:20 UTC. Time now 2018-Apr-26 15:34 UTC.
Position N 40°50' E 014°16'.

Length 33 m; draft 1.1 m.

Type: Passenger vessel. MMSI: 247049500.

Date/timePositionNaut miles runAvg speedWind from/ knotsBaromVisibWave heightAir tempDewpointWater temp
2018-Apr-24 12:20N 40°50' E 014°16'2 4.6
2018-Apr-24 12:00N 40°49' E 014°17'1427.7
2018-Apr-24 11:30N 40°46' E 013°59'2 1.6
2018-Apr-24 09:57N 40°46' E 013°55'4 9.0
2018-Apr-24 09:30N 40°46' E 014°01'12 4.4
2018-Apr-24 06:47N 40°50' E 014°16'516.2
2018-Apr-24 06:31N 40°47' E 014°11'1222.3
2018-Apr-24 06:00N 40°45' E 013°56'816.2
2018-Apr-24 05:31N 40°47' E 014°06'810.0
2018-Apr-24 04:43N 40°50' E 014°16'0 0.0
2018-Apr-23 12:24N 40°50' E 014°16'2 4.2
2018-Apr-23 12:00N 40°49' E 014°16'1428.1
2018-Apr-23 11:30N 40°45' E 013°58'2 1.3
2018-Apr-23 09:58N 40°46' E 013°55'4 8.8
2018-Apr-23 09:30N 40°46' E 014°01'12 7.3
2018-Apr-23 07:54N 40°50' E 014°15'0 0.0
2018-Apr-23 07:30N 40°50' E 014°15'0 0.0
2018-Apr-23 06:57N 40°50' E 014°15'510.7
2018-Apr-23 06:30N 40°47' E 014°11'1122.4
2018-Apr-23 06:00N 40°45' E 013°56'917.5
2018-Apr-23 05:30N 40°47' E 014°07'713.9
2018-Apr-23 05:00N 40°50' E 014°15'1 1.4
2018-Apr-23 04:30N 40°51' E 014°16'0 0.0
2018-Apr-22 18:20N 40°51' E 014°16'1 2.4
2018-Apr-22 18:00N 40°50' E 014°15'816.4
2018-Apr-22 17:31N 40°46' E 014°06'714.4
2018-Apr-22 17:00N 40°45' E 013°56'4 8.4
2018-Apr-22 16:31N 40°46' E 014°01'1122.0
2018-Apr-22 15:59N 40°50' E 014°16'2 3.1
2018-Apr-22 15:31N 40°49' E 014°16'1428.0
2018-Apr-22 15:01N 40°45' E 013°58'2 3.0
2018-Apr-22 14:30N 40°45' E 013°56'1 1.3
2018-Apr-22 14:00N 40°45' E 013°56'0 0.0
2018-Apr-22 13:25N 40°45' E 013°56'0 0.0
2018-Apr-22 12:58N 40°45' E 013°56'0 0.0
2018-Apr-22 12:24N 40°45' E 013°56'0 0.0
2018-Apr-22 12:00N 40°45' E 013°56'0 0.0
2018-Apr-22 11:15N 40°45' E 013°56'0 1.2
2018-Apr-22 10:58N 40°45' E 013°57'1124.9
2018-Apr-22 10:30N 40°47' E 014°11'4 7.4
2018-Apr-22 09:55N 40°50' E 014°15'1 1.7
2018-Apr-22 09:29N 40°51' E 014°16'0 0.0
2018-Apr-22 09:00N 40°51' E 014°16'0 0.0
2018-Apr-20 12:37N 40°51' E 014°16'0 0.0
2018-Apr-20 12:29N 40°51' E 014°16'2 4.0
2018-Apr-20 12:01N 40°49' E 014°17'1428.8
2018-Apr-20 11:30N 40°45' E 013°58'2 1.2
2018-Apr-20 10:00N 40°46' E 013°56'511.2
2018-Apr-20 09:30N 40°46' E 014°03'10 7.6
2018-Apr-20 08:11N 40°50' E 014°15'0 0.0
2018-Apr-20 06:51N 40°50' E 014°15'3 9.1
2018-Apr-20 06:30N 40°48' E 014°13'1325.8
2018-Apr-20 06:00N 40°45' E 013°56'816.8
2018-Apr-20 05:31N 40°47' E 014°07'714.0
2018-Apr-20 05:00N 40°50' E 014°15'1 1.5
2018-Apr-20 04:30N 40°51' E 014°16'0 0.0
2018-Apr-19 15:57N 40°51' E 014°16'1 3.1
2018-Apr-19 15:30N 40°49' E 014°17'1428.7
2018-Apr-19 15:00N 40°46' E 013°59'5 4.4
2018-Apr-19 13:49N 40°46' E 013°52'310.7
2018-Apr-19 13:30N 40°45' E 013°56'919.3
2018-Apr-19 13:00N 40°47' E 014°08'612.2
2018-Apr-19 12:30N 40°50' E 014°15'2 3.5
2018-Apr-19 12:01N 40°49' E 014°16'1527.7
2018-Apr-19 11:29N 40°45' E 013°57'3 2.2
2018-Apr-19 09:58N 40°46' E 013°53'613.4
2018-Apr-19 09:30N 40°46' E 014°01'1224.3
2018-Apr-19 09:00N 40°50' E 014°16'1 1.2
2018-Apr-19 08:29N 40°50' E 014°15'0 0.0
2018-Apr-19 07:55N 40°50' E 014°15'0 0.0
2018-Apr-19 07:27N 40°50' E 014°15'0 0.0
2018-Apr-19 06:53N 40°50' E 014°15'410.9
2018-Apr-19 06:31N 40°47' E 014°12'1224.0
2018-Apr-19 06:00N 40°45' E 013°56'917.2
2018-Apr-19 05:30N 40°47' E 014°07'712.5
2018-Apr-19 04:57N 40°50' E 014°15'1 1.7
2018-Apr-19 04:30N 40°51' E 014°16'0 0.0
2018-Apr-18 13:04N 40°51' E 014°16'0 0.0
2018-Apr-18 12:58N 40°51' E 014°16'0 0.0
2018-Apr-18 12:28N 40°51' E 014°16'2 5.3
2018-Apr-18 12:00N 40°48' E 014°15'1427.3
2018-Apr-18 11:30N 40°45' E 013°58'3 1.8
2018-Apr-18 09:53N 40°46' E 013°54'4 9.2
2018-Apr-18 09:30N 40°46' E 013°58'1426.2
2018-Apr-18 08:58N 40°50' E 014°16'1 1.6
2018-Apr-18 08:28N 40°50' E 014°15'0 0.0
2018-Apr-18 07:59N 40°50' E 014°15'0 0.0
2018-Apr-18 07:29N 40°50' E 014°15'0 0.0
2018-Apr-18 06:58N 40°50' E 014°15'510.8
2018-Apr-18 06:30N 40°47' E 014°11'1122.1
2018-Apr-18 06:00N 40°45' E 013°56'917.9
2018-Apr-18 05:30N 40°47' E 014°08'713.4
2018-Apr-18 05:00N 40°50' E 014°15'1 1.5
2018-Apr-18 04:30N 40°51' E 014°16'0 0.0
2018-Apr-17 12:37N 40°51' E 014°16'0 0.0
2018-Apr-17 12:30N 40°51' E 014°16'1 2.9
2018-Apr-17 12:00N 40°49' E 014°16'1427.5
2018-Apr-17 11:30N 40°46' E 013°59'4 2.8
2018-Apr-17 10:01N 40°46' E 013°53'128.5
2018-Apr-17 10:00N 40°46' E 013°54'714.2
2018-Apr-17 09:30N 40°47' E 014°03'1016.5
2018-Apr-17 08:55N 40°50' E 014°15'0 0.0
2018-Apr-17 08:28N 40°50' E 014°15'0 0.0
2018-Apr-17 07:55N 40°50' E 014°15'0 0.0
2018-Apr-17 07:30N 40°50' E 014°15'0 0.0
2018-Apr-17 06:58N 40°50' E 014°15'613.7
2018-Apr-17 06:30N 40°46' E 014°09'917.1
2018-Apr-17 05:57N 40°45' E 013°56'920.0
2018-Apr-17 05:30N 40°47' E 014°08'712.9
2018-Apr-17 05:00N 40°50' E 014°15'1 1.5
2018-Apr-17 04:30N 40°51' E 014°16'0 0.0
2018-Apr-16 12:26N 40°50' E 014°16'3 6.1
2018-Apr-16 12:01N 40°48' E 014°14'1427.0
2018-Apr-16 11:29N 40°45' E 013°57'4 2.4
2018-Apr-16 10:01N 40°46' E 013°52'712.5
2018-Apr-16 09:28N 40°46' E 014°01'1226.7
2018-Apr-16 09:00N 40°50' E 014°17'1 2.3
2018-Apr-16 08:30N 40°50' E 014°15'0 0.0
2018-Apr-16 07:57N 40°50' E 014°15'0 0.0
2018-Apr-16 07:25N 40°50' E 014°15'0 0.0
2018-Apr-16 06:59N 40°50' E 014°15'4 8.3
2018-Apr-16 06:30N 40°47' E 014°12'1223.2
2018-Apr-16 05:59N 40°45' E 013°56'917.7
2018-Apr-16 05:30N 40°47' E 014°07'713.8
2018-Apr-16 05:00N 40°50' E 014°15'1 1.5
2018-Apr-16 04:30N 40°51' E 014°16'0 0.0
2018-Apr-15 17:22N 40°51' E 014°16'0 1.4
2018-Apr-15 17:00N 40°50' E 014°16'1122.2
2018-Apr-15 16:30N 40°46' E 014°02'7 3.8
2018-Apr-15 14:38N 40°46' E 013°53'321.8
2018-Apr-15 14:30N 40°45' E 013°56'612.3
2018-Apr-15 14:00N 40°46' E 014°04'917.7
2018-Apr-15 13:29N 40°50' E 014°15'0 0.0
2018-Apr-15 13:00N 40°50' E 014°15'4 7.1
2018-Apr-15 12:30N 40°47' E 014°13'1324.7
2018-Apr-15 12:00N 40°45' E 013°56'0 0.0
2018-Apr-15 11:30N 40°45' E 013°56'0 0.0
2018-Apr-15 11:00N 40°45' E 013°56'1122.8
2018-Apr-15 10:31N 40°47' E 014°11'5 8.8
2018-Apr-15 09:59N 40°50' E 014°15'1 0.9
2018-Apr-15 09:11N 40°51' E 014°16'0 0.0
2018-Apr-14 12:34N 40°51' E 014°16'0 0.1
2018-Apr-14 12:30N 40°51' E 014°16'  

Dump ship's entire track history